sensor_id;sensor_type;location;lat;lon;timestamp;temperature;humidity
21149;DHT22;10732;51.472;6.466;2022-07-01T00:00:31;15.00;99.90
21149;DHT22;10732;51.472;6.466;2022-07-01T00:02:57;14.90;99.90
21149;DHT22;10732;51.472;6.466;2022-07-01T00:05:24;14.80;99.90
21149;DHT22;10732;51.472;6.466;2022-07-01T00:07:49;14.80;99.90
21149;DHT22;10732;51.472;6.466;2022-07-01T00:10:15;14.70;99.90
21149;DHT22;10732;51.472;6.466;2022-07-01T00:12:41;14.70;99.90
21149;DHT22;10732;51.472;6.466;2022-07-01T00:15:07;14.60;99.90
21149;DHT22;10732;51.472;6.466;2022-07-01T00:17:33;14.60;99.90
21149;DHT22;10732;51.472;6.466;2022-07-01T00:19:58;14.60;99.90
21149;DHT22;10732;51.472;6.466;2022-07-01T00:22:24;14.60;99.90
21149;DHT22;10732;51.472;6.466;2022-07-01T00:24:53;14.70;99.90
21149;DHT22;10732;51.472;6.466;2022-07-01T00:27:18;14.70;99.90
21149;DHT22;10732;51.472;6.466;2022-07-01T00:29:44;14.70;99.90
21149;DHT22;10732;51.472;6.466;2022-07-01T00:32:10;14.60;99.90
21149;DHT22;10732;51.472;6.466;2022-07-01T00:34:36;14.70;99.90
21149;DHT22;10732;51.472;6.466;2022-07-01T00:37:02;14.70;99.90
21149;DHT22;10732;51.472;6.466;2022-07-01T00:39:27;14.70;99.90
21149;DHT22;10732;51.472;6.466;2022-07-01T00:41:58;14.70;99.90
21149;DHT22;10732;51.472;6.466;2022-07-01T00:44:25;14.60;99.90
21149;DHT22;10732;51.472;6.466;2022-07-01T00:46:51;14.60;99.90
21149;DHT22;10732;51.472;6.466;2022-07-01T00:49:16;14.70;99.90
21149;DHT22;10732;51.472;6.466;2022-07-01T00:51:43;14.60;99.90
21149;DHT22;10732;51.472;6.466;2022-07-01T00:54:09;14.60;99.90
21149;DHT22;10732;51.472;6.466;2022-07-01T00:56:35;14.60;99.90
21149;DHT22;10732;51.472;6.466;2022-07-01T00:59:01;14.60;99.90
21149;DHT22;10732;51.472;6.466;2022-07-01T01:01:26;14.60;99.90
21149;DHT22;10732;51.472;6.466;2022-07-01T01:03:52;14.60;99.90
21149;DHT22;10732;51.472;6.466;2022-07-01T01:06:18;14.50;99.90
21149;DHT22;10732;51.472;6.466;2022-07-01T01:08:45;14.40;99.90
21149;DHT22;10732;51.472;6.466;2022-07-01T01:11:11;14.40;99.90
21149;DHT22;10732;51.472;6.466;2022-07-01T01:13:38;14.30;99.90
21149;DHT22;10732;51.472;6.466;2022-07-01T01:16:04;14.30;99.90
21149;DHT22;10732;51.472;6.466;2022-07-01T01:18:30;14.30;99.90
21149;DHT22;10732;51.472;6.466;2022-07-01T01:20:55;14.20;99.90
21149;DHT22;10732;51.472;6.466;2022-07-01T01:23:21;14.30;99.90
21149;DHT22;10732;51.472;6.466;2022-07-01T01:25:49;14.30;99.90
21149;DHT22;10732;51.472;6.466;2022-07-01T01:28:15;14.30;99.90
21149;DHT22;10732;51.472;6.466;2022-07-01T01:30:41;14.30;99.90
21149;DHT22;10732;51.472;6.466;2022-07-01T01:33:06;14.30;99.90
21149;DHT22;10732;51.472;6.466;2022-07-01T01:35:34;14.30;99.90
21149;DHT22;10732;51.472;6.466;2022-07-01T01:37:59;14.20;99.90
21149;DHT22;10732;51.472;6.466;2022-07-01T01:40:25;14.20;99.90
21149;DHT22;10732;51.472;6.466;2022-07-01T01:42:51;14.10;99.90
21149;DHT22;10732;51.472;6.466;2022-07-01T01:45:17;14.10;99.90
21149;DHT22;10732;51.472;6.466;2022-07-01T01:47:43;14.10;99.90
21149;DHT22;10732;51.472;6.466;2022-07-01T01:50:10;14.10;99.90
21149;DHT22;10732;51.472;6.466;2022-07-01T01:52:36;14.20;99.90
21149;DHT22;10732;51.472;6.466;2022-07-01T01:55:04;14.20;99.90
21149;DHT22;10732;51.472;6.466;2022-07-01T01:57:30;14.20;99.90
21149;DHT22;10732;51.472;6.466;2022-07-01T01:59:55;14.10;99.90
21149;DHT22;10732;51.472;6.466;2022-07-01T02:02:21;14.10;99.90
21149;DHT22;10732;51.472;6.466;2022-07-01T02:04:46;14.10;99.90
21149;DHT22;10732;51.472;6.466;2022-07-01T02:07:12;14.00;99.90
21149;DHT22;10732;51.472;6.466;2022-07-01T02:09:38;14.10;99.90
21149;DHT22;10732;51.472;6.466;2022-07-01T02:12:03;14.00;99.90
21149;DHT22;10732;51.472;6.466;2022-07-01T02:14:29;14.10;99.90
21149;DHT22;10732;51.472;6.466;2022-07-01T02:16:55;14.10;99.90
21149;DHT22;10732;51.472;6.466;2022-07-01T02:19:20;14.20;99.90
21149;DHT22;10732;51.472;6.466;2022-07-01T02:21:46;14.20;99.90
21149;DHT22;10732;51.472;6.466;2022-07-01T02:24:12;14.20;99.90
21149;DHT22;10732;51.472;6.466;2022-07-01T02:26:37;14.20;99.90
21149;DHT22;10732;51.472;6.466;2022-07-01T02:29:03;14.10;99.90
21149;DHT22;10732;51.472;6.466;2022-07-01T02:31:29;14.10;99.90
21149;DHT22;10732;51.472;6.466;2022-07-01T02:33:55;14.20;99.90
21149;DHT22;10732;51.472;6.466;2022-07-01T02:36:20;14.10;99.90
21149;DHT22;10732;51.472;6.466;2022-07-01T02:38:46;14.10;99.90
21149;DHT22;10732;51.472;6.466;2022-07-01T02:41:11;14.20;99.90
21149;DHT22;10732;51.472;6.466;2022-07-01T02:43:37;14.20;99.90
21149;DHT22;10732;51.472;6.466;2022-07-01T02:46:02;14.10;99.90
21149;DHT22;10732;51.472;6.466;2022-07-01T02:48:28;14.10;99.90
21149;DHT22;10732;51.472;6.466;2022-07-01T02:50:53;14.20;99.90
21149;DHT22;10732;51.472;6.466;2022-07-01T02:53:19;14.20;99.90
21149;DHT22;10732;51.472;6.466;2022-07-01T02:55:45;14.20;99.90
21149;DHT22;10732;51.472;6.466;2022-07-01T02:58:10;14.10;99.90
21149;DHT22;10732;51.472;6.466;2022-07-01T03:00:36;14.10;99.90
21149;DHT22;10732;51.472;6.466;2022-07-01T03:03:02;14.20;99.90
21149;DHT22;10732;51.472;6.466;2022-07-01T03:05:28;14.20;99.90
21149;DHT22;10732;51.472;6.466;2022-07-01T03:07:53;14.20;99.90
21149;DHT22;10732;51.472;6.466;2022-07-01T03:10:19;14.20;99.90
21149;DHT22;10732;51.472;6.466;2022-07-01T03:12:45;14.20;99.90
21149;DHT22;10732;51.472;6.466;2022-07-01T03:15:13;14.20;99.90
21149;DHT22;10732;51.472;6.466;2022-07-01T03:17:41;14.30;99.90
21149;DHT22;10732;51.472;6.466;2022-07-01T03:20:17;14.20;99.90
21149;DHT22;10732;51.472;6.466;2022-07-01T03:22:44;14.30;99.90
21149;DHT22;10732;51.472;6.466;2022-07-01T03:25:10;14.30;99.90
21149;DHT22;10732;51.472;6.466;2022-07-01T03:27:35;14.30;99.90
21149;DHT22;10732;51.472;6.466;2022-07-01T03:30:03;14.40;99.90
21149;DHT22;10732;51.472;6.466;2022-07-01T03:32:29;14.40;99.90
21149;DHT22;10732;51.472;6.466;2022-07-01T03:34:55;14.40;99.90
21149;DHT22;10732;51.472;6.466;2022-07-01T03:37:22;14.30;99.90
21149;DHT22;10732;51.472;6.466;2022-07-01T03:39:48;14.40;99.90
21149;DHT22;10732;51.472;6.466;2022-07-01T03:42:14;14.40;99.90
21149;DHT22;10732;51.472;6.466;2022-07-01T03:44:40;14.30;99.90
21149;DHT22;10732;51.472;6.466;2022-07-01T03:47:07;14.30;99.90
21149;DHT22;10732;51.472;6.466;2022-07-01T03:49:36;14.40;99.90
21149;DHT22;10732;51.472;6.466;2022-07-01T03:52:02;14.40;99.90
21149;DHT22;10732;51.472;6.466;2022-07-01T03:54:28;14.40;99.90
21149;DHT22;10732;51.472;6.466;2022-07-01T03:57:10;14.50;99.90
21149;DHT22;10732;51.472;6.466;2022-07-01T03:59:37;14.50;99.90
21149;DHT22;10732;51.472;6.466;2022-07-01T04:02:03;14.40;99.90
21149;DHT22;10732;51.472;6.466;2022-07-01T04:04:29;14.40;99.90
21149;DHT22;10732;51.472;6.466;2022-07-01T04:06:57;14.30;99.90
21149;DHT22;10732;51.472;6.466;2022-07-01T04:09:24;14.30;99.90
21149;DHT22;10732;51.472;6.466;2022-07-01T04:11:50;14.30;99.90
21149;DHT22;10732;51.472;6.466;2022-07-01T04:14:16;14.30;99.90
21149;DHT22;10732;51.472;6.466;2022-07-01T04:16:42;14.40;99.90
21149;DHT22;10732;51.472;6.466;2022-07-01T04:19:09;14.40;99.90
21149;DHT22;10732;51.472;6.466;2022-07-01T04:21:35;14.40;99.90
21149;DHT22;10732;51.472;6.466;2022-07-01T04:24:20;14.40;99.90
21149;DHT22;10732;51.472;6.466;2022-07-01T04:26:45;14.50;99.90
21149;DHT22;10732;51.472;6.466;2022-07-01T04:29:11;14.50;99.90
21149;DHT22;10732;51.472;6.466;2022-07-01T04:31:38;14.50;99.90
21149;DHT22;10732;51.472;6.466;2022-07-01T04:34:04;14.50;99.90
21149;DHT22;10732;51.472;6.466;2022-07-01T04:36:30;14.50;99.90
21149;DHT22;10732;51.472;6.466;2022-07-01T04:38:56;14.40;99.90
21149;DHT22;10732;51.472;6.466;2022-07-01T04:41:22;14.50;99.90
21149;DHT22;10732;51.472;6.466;2022-07-01T04:44:06;14.50;99.90
21149;DHT22;10732;51.472;6.466;2022-07-01T04:46:32;14.50;99.90
21149;DHT22;10732;51.472;6.466;2022-07-01T04:48:58;14.50;99.90
21149;DHT22;10732;51.472;6.466;2022-07-01T04:51:23;14.50;99.90
21149;DHT22;10732;51.472;6.466;2022-07-01T04:53:49;14.50;99.90
21149;DHT22;10732;51.472;6.466;2022-07-01T04:56:15;14.50;99.90
21149;DHT22;10732;51.472;6.466;2022-07-01T04:58:41;14.50;99.90
21149;DHT22;10732;51.472;6.466;2022-07-01T05:01:06;14.50;99.90
21149;DHT22;10732;51.472;6.466;2022-07-01T05:03:32;14.50;99.90
21149;DHT22;10732;51.472;6.466;2022-07-01T05:05:58;14.50;99.90
21149;DHT22;10732;51.472;6.466;2022-07-01T05:08:23;14.60;99.90
21149;DHT22;10732;51.472;6.466;2022-07-01T05:10:49;14.60;99.90
21149;DHT22;10732;51.472;6.466;2022-07-01T05:13:14;14.60;99.90
21149;DHT22;10732;51.472;6.466;2022-07-01T05:15:40;14.60;99.90
21149;DHT22;10732;51.472;6.466;2022-07-01T05:18:06;14.70;99.90
21149;DHT22;10732;51.472;6.466;2022-07-01T05:20:50;14.70;99.90
21149;DHT22;10732;51.472;6.466;2022-07-01T05:23:34;14.70;99.90
21149;DHT22;10732;51.472;6.466;2022-07-01T05:26:01;14.60;99.90
21149;DHT22;10732;51.472;6.466;2022-07-01T05:28:27;14.60;99.90
21149;DHT22;10732;51.472;6.466;2022-07-01T05:30:52;14.80;99.90
21149;DHT22;10732;51.472;6.466;2022-07-01T05:33:18;15.10;99.90
21149;DHT22;10732;51.472;6.466;2022-07-01T05:35:47;15.60;99.90
21149;DHT22;10732;51.472;6.466;2022-07-01T05:38:12;15.70;99.90
21149;DHT22;10732;51.472;6.466;2022-07-01T05:40:38;15.40;99.90
21149;DHT22;10732;51.472;6.466;2022-07-01T05:43:04;15.40;99.90
21149;DHT22;10732;51.472;6.466;2022-07-01T05:45:29;15.70;99.90
21149;DHT22;10732;51.472;6.466;2022-07-01T05:47:55;15.70;99.90
21149;DHT22;10732;51.472;6.466;2022-07-01T05:50:22;16.00;99.90
21149;DHT22;10732;51.472;6.466;2022-07-01T05:52:47;16.10;99.90
21149;DHT22;10732;51.472;6.466;2022-07-01T05:55:13;15.90;99.90
21149;DHT22;10732;51.472;6.466;2022-07-01T05:57:39;15.50;99.90
21149;DHT22;10732;51.472;6.466;2022-07-01T06:00:05;15.30;99.90
21149;DHT22;10732;51.472;6.466;2022-07-01T06:02:31;15.30;99.90
21149;DHT22;10732;51.472;6.466;2022-07-01T06:04:56;15.20;99.90
21149;DHT22;10732;51.472;6.466;2022-07-01T06:07:24;15.10;99.90
21149;DHT22;10732;51.472;6.466;2022-07-01T06:09:50;15.10;99.90
21149;DHT22;10732;51.472;6.466;2022-07-01T06:12:15;15.10;99.90
21149;DHT22;10732;51.472;6.466;2022-07-01T06:14:41;15.10;99.90
21149;DHT22;10732;51.472;6.466;2022-07-01T06:17:07;15.10;99.90
21149;DHT22;10732;51.472;6.466;2022-07-01T06:19:34;15.30;99.90
21149;DHT22;10732;51.472;6.466;2022-07-01T06:22:00;15.40;99.90
21149;DHT22;10732;51.472;6.466;2022-07-01T06:24:25;15.40;99.90
21149;DHT22;10732;51.472;6.466;2022-07-01T06:26:51;15.60;99.90
21149;DHT22;10732;51.472;6.466;2022-07-01T06:29:17;15.60;99.90
21149;DHT22;10732;51.472;6.466;2022-07-01T06:31:42;15.70;99.90
21149;DHT22;10732;51.472;6.466;2022-07-01T06:34:08;15.90;99.90
21149;DHT22;10732;51.472;6.466;2022-07-01T06:36:33;16.10;99.90
21149;DHT22;10732;51.472;6.466;2022-07-01T06:38:59;16.30;99.90
21149;DHT22;10732;51.472;6.466;2022-07-01T06:41:24;16.30;99.90
21149;DHT22;10732;51.472;6.466;2022-07-01T06:43:54;16.00;99.90
21149;DHT22;10732;51.472;6.466;2022-07-01T06:46:19;16.20;99.90
21149;DHT22;10732;51.472;6.466;2022-07-01T06:48:45;16.20;99.90
21149;DHT22;10732;51.472;6.466;2022-07-01T06:51:11;16.00;99.90
21149;DHT22;10732;51.472;6.466;2022-07-01T06:53:36;16.10;99.90
21149;DHT22;10732;51.472;6.466;2022-07-01T06:56:02;16.60;99.90
21149;DHT22;10732;51.472;6.466;2022-07-01T06:58:28;16.90;99.90
21149;DHT22;10732;51.472;6.466;2022-07-01T07:00:53;17.00;99.90
21149;DHT22;10732;51.472;6.466;2022-07-01T07:03:19;17.40;99.90
21149;DHT22;10732;51.472;6.466;2022-07-01T07:05:44;18.20;99.90
21149;DHT22;10732;51.472;6.466;2022-07-01T07:08:10;18.30;99.90
21149;DHT22;10732;51.472;6.466;2022-07-01T07:10:36;18.30;99.90
21149;DHT22;10732;51.472;6.466;2022-07-01T07:13:01;17.70;99.90
21149;DHT22;10732;51.472;6.466;2022-07-01T07:15:27;17.70;99.90
21149;DHT22;10732;51.472;6.466;2022-07-01T07:17:52;17.60;99.90
21149;DHT22;10732;51.472;6.466;2022-07-01T07:20:19;17.40;99.90
21149;DHT22;10732;51.472;6.466;2022-07-01T07:22:45;17.30;99.90
21149;DHT22;10732;51.472;6.466;2022-07-01T07:25:10;17.50;99.90
21149;DHT22;10732;51.472;6.466;2022-07-01T07:27:36;17.50;99.90
21149;DHT22;10732;51.472;6.466;2022-07-01T07:30:01;16.90;99.90
21149;DHT22;10732;51.472;6.466;2022-07-01T07:32:28;17.20;99.90
21149;DHT22;10732;51.472;6.466;2022-07-01T07:34:54;17.80;99.90
21149;DHT22;10732;51.472;6.466;2022-07-01T07:37:19;18.30;99.90
21149;DHT22;10732;51.472;6.466;2022-07-01T07:39:45;18.70;99.90
21149;DHT22;10732;51.472;6.466;2022-07-01T07:42:10;18.80;99.90
21149;DHT22;10732;51.472;6.466;2022-07-01T07:44:36;18.50;99.90
21149;DHT22;10732;51.472;6.466;2022-07-01T07:47:02;19.50;99.90
21149;DHT22;10732;51.472;6.466;2022-07-01T07:49:28;19.30;99.90
21149;DHT22;10732;51.472;6.466;2022-07-01T07:51:54;20.00;99.90
21149;DHT22;10732;51.472;6.466;2022-07-01T07:54:20;19.70;99.90
21149;DHT22;10732;51.472;6.466;2022-07-01T07:56:46;18.90;99.90
21149;DHT22;10732;51.472;6.466;2022-07-01T07:59:12;19.70;99.90
21149;DHT22;10732;51.472;6.466;2022-07-01T08:01:37;20.20;99.90
21149;DHT22;10732;51.472;6.466;2022-07-01T08:04:03;21.20;99.90
21149;DHT22;10732;51.472;6.466;2022-07-01T08:06:29;22.90;99.90
21149;DHT22;10732;51.472;6.466;2022-07-01T08:08:55;23.60;99.90
21149;DHT22;10732;51.472;6.466;2022-07-01T08:11:21;23.00;99.90
21149;DHT22;10732;51.472;6.466;2022-07-01T08:13:47;21.30;99.90
21149;DHT22;10732;51.472;6.466;2022-07-01T08:16:12;22.00;99.90
21149;DHT22;10732;51.472;6.466;2022-07-01T08:18:38;22.00;99.90
21149;DHT22;10732;51.472;6.466;2022-07-01T08:21:04;22.20;99.90
21149;DHT22;10732;51.472;6.466;2022-07-01T08:23:29;22.50;99.90
21149;DHT22;10732;51.472;6.466;2022-07-01T08:25:55;22.20;99.90
21149;DHT22;10732;51.472;6.466;2022-07-01T08:28:21;20.80;99.90
21149;DHT22;10732;51.472;6.466;2022-07-01T08:30:47;21.60;99.90
21149;DHT22;10732;51.472;6.466;2022-07-01T08:33:12;22.50;99.90
21149;DHT22;10732;51.472;6.466;2022-07-01T08:35:38;22.40;99.90
21149;DHT22;10732;51.472;6.466;2022-07-01T08:38:04;23.40;99.90
21149;DHT22;10732;51.472;6.466;2022-07-01T08:40:31;24.60;99.90
21149;DHT22;10732;51.472;6.466;2022-07-01T08:43:05;23.80;99.90
21149;DHT22;10732;51.472;6.466;2022-07-01T08:45:33;25.30;99.90
21149;DHT22;10732;51.472;6.466;2022-07-01T08:48:00;26.20;99.90
21149;DHT22;10732;51.472;6.466;2022-07-01T08:50:35;24.40;99.90
21149;DHT22;10732;51.472;6.466;2022-07-01T08:53:01;24.80;99.90
21149;DHT22;10732;51.472;6.466;2022-07-01T08:55:27;26.70;99.90
21149;DHT22;10732;51.472;6.466;2022-07-01T08:57:54;27.90;99.90
21149;DHT22;10732;51.472;6.466;2022-07-01T09:00:20;26.30;99.90
21149;DHT22;10732;51.472;6.466;2022-07-01T09:03:00;27.20;99.90
21149;DHT22;10732;51.472;6.466;2022-07-01T09:05:26;26.70;99.90
21149;DHT22;10732;51.472;6.466;2022-07-01T09:08:06;27.70;99.90
21149;DHT22;10732;51.472;6.466;2022-07-01T09:10:33;27.30;99.90
21149;DHT22;10732;51.472;6.466;2022-07-01T09:13:08;26.90;99.90
21149;DHT22;10732;51.472;6.466;2022-07-01T09:15:36;26.50;99.90
21149;DHT22;10732;51.472;6.466;2022-07-01T09:18:13;26.00;99.90
21149;DHT22;10732;51.472;6.466;2022-07-01T09:20:44;25.50;99.90
21149;DHT22;10732;51.472;6.466;2022-07-01T09:23:15;25.10;99.90
21149;DHT22;10732;51.472;6.466;2022-07-01T09:25:46;25.20;99.90
21149;DHT22;10732;51.472;6.466;2022-07-01T09:28:24;25.60;99.90
21149;DHT22;10732;51.472;6.466;2022-07-01T09:30:55;25.20;99.90
21149;DHT22;10732;51.472;6.466;2022-07-01T09:33:23;24.60;99.90
21149;DHT22;10732;51.472;6.466;2022-07-01T09:35:49;24.20;99.90
21149;DHT22;10732;51.472;6.466;2022-07-01T09:38:20;24.80;99.90
21149;DHT22;10732;51.472;6.466;2022-07-01T09:40:53;24.80;99.90
21149;DHT22;10732;51.472;6.466;2022-07-01T09:43:27;23.20;99.90
21149;DHT22;10732;51.472;6.466;2022-07-01T09:45:58;23.80;99.90
21149;DHT22;10732;51.472;6.466;2022-07-01T09:48:27;23.60;99.90
21149;DHT22;10732;51.472;6.466;2022-07-01T09:51:07;23.60;99.90
21149;DHT22;10732;51.472;6.466;2022-07-01T09:53:33;25.30;99.90
21149;DHT22;10732;51.472;6.466;2022-07-01T09:55:59;26.10;99.90
21149;DHT22;10732;51.472;6.466;2022-07-01T09:58:25;26.70;99.90
21149;DHT22;10732;51.472;6.466;2022-07-01T10:00:52;27.30;99.90
21149;DHT22;10732;51.472;6.466;2022-07-01T10:03:18;28.20;99.90
21149;DHT22;10732;51.472;6.466;2022-07-01T10:13:25;25.20;99.90
21149;DHT22;10732;51.472;6.466;2022-07-01T10:15:51;26.00;99.90
21149;DHT22;10732;51.472;6.466;2022-07-01T10:18:22;26.40;99.90
21149;DHT22;10732;51.472;6.466;2022-07-01T10:20:48;25.20;99.90
21149;DHT22;10732;51.472;6.466;2022-07-01T10:23:14;26.10;99.90
21149;DHT22;10732;51.472;6.466;2022-07-01T10:25:48;25.90;99.90
21149;DHT22;10732;51.472;6.466;2022-07-01T10:28:43;27.30;99.90
21149;DHT22;10732;51.472;6.466;2022-07-01T10:31:13;27.40;99.90
21149;DHT22;10732;51.472;6.466;2022-07-01T10:39:09;26.40;99.90
21149;DHT22;10732;51.472;6.466;2022-07-01T10:41:41;25.70;99.90
21149;DHT22;10732;51.472;6.466;2022-07-01T10:44:11;25.10;99.90
21149;DHT22;10732;51.472;6.466;2022-07-01T10:46:52;25.00;99.90
21149;DHT22;10732;51.472;6.466;2022-07-01T10:52:07;26.20;99.90
21149;DHT22;10732;51.472;6.466;2022-07-01T10:59:44;26.20;99.90
21149;DHT22;10732;51.472;6.466;2022-07-01T11:02:11;27.10;99.90
21149;DHT22;10732;51.472;6.466;2022-07-01T11:04:37;27.40;99.90
21149;DHT22;10732;51.472;6.466;2022-07-01T11:07:03;27.70;99.90
21149;DHT22;10732;51.472;6.466;2022-07-01T11:09:29;27.60;99.90
21149;DHT22;10732;51.472;6.466;2022-07-01T11:11:55;28.70;99.90
21149;DHT22;10732;51.472;6.466;2022-07-01T11:14:20;28.40;99.90
21149;DHT22;10732;51.472;6.466;2022-07-01T11:16:46;28.50;99.90
21149;DHT22;10732;51.472;6.466;2022-07-01T11:19:12;27.90;99.90
21149;DHT22;10732;51.472;6.466;2022-07-01T11:21:37;28.00;99.90
21149;DHT22;10732;51.472;6.466;2022-07-01T11:24:08;29.20;99.90
21149;DHT22;10732;51.472;6.466;2022-07-01T11:26:34;28.90;99.90
21149;DHT22;10732;51.472;6.466;2022-07-01T11:28:59;27.90;99.90
21149;DHT22;10732;51.472;6.466;2022-07-01T11:31:29;27.80;99.90
21149;DHT22;10732;51.472;6.466;2022-07-01T11:33:55;27.10;99.90
21149;DHT22;10732;51.472;6.466;2022-07-01T11:36:21;26.40;99.90
21149;DHT22;10732;51.472;6.466;2022-07-01T11:39:05;26.50;99.90
21149;DHT22;10732;51.472;6.466;2022-07-01T11:41:56;25.90;99.90
21149;DHT22;10732;51.472;6.466;2022-07-01T11:44:37;26.10;99.90
21149;DHT22;10732;51.472;6.466;2022-07-01T11:47:05;26.00;99.90
21149;DHT22;10732;51.472;6.466;2022-07-01T11:49:31;25.70;99.90
21149;DHT22;10732;51.472;6.466;2022-07-01T11:52:02;25.00;99.90
21149;DHT22;10732;51.472;6.466;2022-07-01T11:54:29;25.00;99.90
21149;DHT22;10732;51.472;6.466;2022-07-01T11:57:16;24.40;99.90
21149;DHT22;10732;51.472;6.466;2022-07-01T11:59:44;24.60;99.90
21149;DHT22;10732;51.472;6.466;2022-07-01T12:02:13;24.30;99.90
21149;DHT22;10732;51.472;6.466;2022-07-01T12:04:43;25.10;99.90
21149;DHT22;10732;51.472;6.466;2022-07-01T12:07:09;24.80;99.90
21149;DHT22;10732;51.472;6.466;2022-07-01T12:09:36;24.40;99.90
21149;DHT22;10732;51.472;6.466;2022-07-01T12:12:03;24.70;99.90
21149;DHT22;10732;51.472;6.466;2022-07-01T12:14:32;25.00;99.90
21149;DHT22;10732;51.472;6.466;2022-07-01T12:17:00;24.80;99.90
21149;DHT22;10732;51.472;6.466;2022-07-01T12:19:39;24.90;99.90
21149;DHT22;10732;51.472;6.466;2022-07-01T12:22:23;24.80;99.90
21149;DHT22;10732;51.472;6.466;2022-07-01T12:24:51;24.40;99.90
21149;DHT22;10732;51.472;6.466;2022-07-01T12:27:20;24.80;99.90
21149;DHT22;10732;51.472;6.466;2022-07-01T12:32:13;24.30;99.90
21149;DHT22;10732;51.472;6.466;2022-07-01T12:37:14;24.30;99.90
21149;DHT22;10732;51.472;6.466;2022-07-01T12:42:18;24.00;99.90
21149;DHT22;10732;51.472;6.466;2022-07-01T12:44:45;23.90;99.90
21149;DHT22;10732;51.472;6.466;2022-07-01T12:50:20;24.30;99.90
21149;DHT22;10732;51.472;6.466;2022-07-01T12:55:40;24.60;99.90
21149;DHT22;10732;51.472;6.466;2022-07-01T12:58:10;24.00;99.90
21149;DHT22;10732;51.472;6.466;2022-07-01T13:00:38;24.00;99.90
21149;DHT22;10732;51.472;6.466;2022-07-01T13:03:05;23.30;99.90
21149;DHT22;10732;51.472;6.466;2022-07-01T13:05:33;23.70;99.90
21149;DHT22;10732;51.472;6.466;2022-07-01T13:07:59;23.90;99.90
21149;DHT22;10732;51.472;6.466;2022-07-01T13:10:25;23.70;99.90
21149;DHT22;10732;51.472;6.466;2022-07-01T13:12:51;24.20;99.90
21149;DHT22;10732;51.472;6.466;2022-07-01T13:15:18;24.90;99.90
21149;DHT22;10732;51.472;6.466;2022-07-01T13:17:44;25.20;99.90
21149;DHT22;10732;51.472;6.466;2022-07-01T13:20:11;25.30;99.90
21149;DHT22;10732;51.472;6.466;2022-07-01T13:22:37;24.90;99.90
21149;DHT22;10732;51.472;6.466;2022-07-01T13:25:03;24.40;99.90
21149;DHT22;10732;51.472;6.466;2022-07-01T13:27:28;24.20;99.90
21149;DHT22;10732;51.472;6.466;2022-07-01T13:29:54;24.00;99.90
21149;DHT22;10732;51.472;6.466;2022-07-01T13:32:20;24.00;99.90
21149;DHT22;10732;51.472;6.466;2022-07-01T13:34:46;24.70;99.90
21149;DHT22;10732;51.472;6.466;2022-07-01T13:37:11;25.20;99.90
21149;DHT22;10732;51.472;6.466;2022-07-01T13:39:37;25.30;99.90
21149;DHT22;10732;51.472;6.466;2022-07-01T13:42:03;24.90;99.90
21149;DHT22;10732;51.472;6.466;2022-07-01T13:44:28;24.50;99.90
21149;DHT22;10732;51.472;6.466;2022-07-01T13:46:54;24.00;99.90
21149;DHT22;10732;51.472;6.466;2022-07-01T13:49:19;23.80;99.90
21149;DHT22;10732;51.472;6.466;2022-07-01T13:51:45;24.10;99.90
21149;DHT22;10732;51.472;6.466;2022-07-01T13:54:11;24.20;99.90
21149;DHT22;10732;51.472;6.466;2022-07-01T13:56:37;24.20;99.90
21149;DHT22;10732;51.472;6.466;2022-07-01T13:59:03;24.20;99.90
21149;DHT22;10732;51.472;6.466;2022-07-01T14:01:29;24.10;99.90
21149;DHT22;10732;51.472;6.466;2022-07-01T14:03:55;24.10;99.90
21149;DHT22;10732;51.472;6.466;2022-07-01T14:06:21;23.90;99.90
21149;DHT22;10732;51.472;6.466;2022-07-01T14:08:46;24.00;99.90
21149;DHT22;10732;51.472;6.466;2022-07-01T14:11:12;23.60;99.90
21149;DHT22;10732;51.472;6.466;2022-07-01T14:13:39;23.90;99.90
21149;DHT22;10732;51.472;6.466;2022-07-01T14:16:06;24.10;99.90
21149;DHT22;10732;51.472;6.466;2022-07-01T14:18:33;24.10;99.90
21149;DHT22;10732;51.472;6.466;2022-07-01T14:21:00;24.60;99.90
21149;DHT22;10732;51.472;6.466;2022-07-01T14:23:25;24.00;99.90
21149;DHT22;10732;51.472;6.466;2022-07-01T14:25:51;24.10;99.90
21149;DHT22;10732;51.472;6.466;2022-07-01T14:28:17;24.00;99.90
21149;DHT22;10732;51.472;6.466;2022-07-01T14:30:43;23.60;99.90
21149;DHT22;10732;51.472;6.466;2022-07-01T14:33:09;23.50;99.90
21149;DHT22;10732;51.472;6.466;2022-07-01T14:35:35;23.50;99.90
21149;DHT22;10732;51.472;6.466;2022-07-01T14:38:00;23.40;99.90
21149;DHT22;10732;51.472;6.466;2022-07-01T14:40:27;23.60;99.90
21149;DHT22;10732;51.472;6.466;2022-07-01T14:42:52;24.00;99.90
21149;DHT22;10732;51.472;6.466;2022-07-01T14:45:18;24.20;99.90
21149;DHT22;10732;51.472;6.466;2022-07-01T14:47:44;24.40;99.90
21149;DHT22;10732;51.472;6.466;2022-07-01T14:50:11;24.20;99.90
21149;DHT22;10732;51.472;6.466;2022-07-01T14:52:37;24.60;99.90
21149;DHT22;10732;51.472;6.466;2022-07-01T14:55:04;24.60;99.90
21149;DHT22;10732;51.472;6.466;2022-07-01T14:57:30;24.20;99.90
21149;DHT22;10732;51.472;6.466;2022-07-01T14:59:58;24.20;99.90
21149;DHT22;10732;51.472;6.466;2022-07-01T15:02:24;24.40;99.90
21149;DHT22;10732;51.472;6.466;2022-07-01T15:04:50;23.70;99.90
21149;DHT22;10732;51.472;6.466;2022-07-01T15:07:16;23.70;99.90
21149;DHT22;10732;51.472;6.466;2022-07-01T15:09:42;23.70;99.90
21149;DHT22;10732;51.472;6.466;2022-07-01T15:12:08;23.70;99.90
21149;DHT22;10732;51.472;6.466;2022-07-01T15:14:34;23.70;99.90
21149;DHT22;10732;51.472;6.466;2022-07-01T15:16:59;23.70;99.90
21149;DHT22;10732;51.472;6.466;2022-07-01T15:19:26;23.10;99.90
21149;DHT22;10732;51.472;6.466;2022-07-01T15:21:55;22.80;99.90
21149;DHT22;10732;51.472;6.466;2022-07-01T15:24:22;23.50;99.90
21149;DHT22;10732;51.472;6.466;2022-07-01T15:26:48;24.00;99.90
21149;DHT22;10732;51.472;6.466;2022-07-01T15:29:13;23.90;99.90
21149;DHT22;10732;51.472;6.466;2022-07-01T15:31:39;24.00;99.90
21149;DHT22;10732;51.472;6.466;2022-07-01T15:34:05;24.10;99.90
21149;DHT22;10732;51.472;6.466;2022-07-01T15:36:30;24.10;99.90
21149;DHT22;10732;51.472;6.466;2022-07-01T15:38:56;23.80;99.90
21149;DHT22;10732;51.472;6.466;2022-07-01T15:41:27;23.50;99.90
21149;DHT22;10732;51.472;6.466;2022-07-01T15:43:53;23.30;99.90
21149;DHT22;10732;51.472;6.466;2022-07-01T15:46:19;23.20;99.90
21149;DHT22;10732;51.472;6.466;2022-07-01T15:48:45;23.20;99.90
21149;DHT22;10732;51.472;6.466;2022-07-01T15:51:11;23.80;99.90
21149;DHT22;10732;51.472;6.466;2022-07-01T15:53:37;23.50;99.90
21149;DHT22;10732;51.472;6.466;2022-07-01T15:56:03;23.60;99.90
21149;DHT22;10732;51.472;6.466;2022-07-01T15:58:29;23.60;99.90
21149;DHT22;10732;51.472;6.466;2022-07-01T16:00:59;23.60;99.90
21149;DHT22;10732;51.472;6.466;2022-07-01T16:03:24;23.90;99.90